Time;durP1;ratioP1;P1;durP2;ratioP2;P2;SDS_P1;SDS_P2;PMS_P1;PMS_P2;Temp;Humidity;BMP_temperature;BMP_pressure;BME280_temperature;BME280_humidity;BME280_pressure;Samples;Min_cycle;Max_cycle;Signal;HPM_P1;HPM_P2
2022/09/06 00:00:06;;;;;;;3.60;1.42;;;;;;;20.12;62.00;100195.28;5074535;28;20119;-79
2022/09/06 00:02:32;;;;;;;4.43;1.88;;;;;;;20.10;62.18;100192.91;5073173;28;20044;-79
2022/09/06 00:04:58;;;;;;;3.72;1.50;;;;;;;20.03;62.17;100187.41;5073058;28;20421;-79
2022/09/06 00:07:24;;;;;;;3.75;1.63;;;;;;;20.10;61.69;100194.88;5074418;28;20079;-79
2022/09/06 00:09:49;;;;;;;4.97;1.90;;;;;;;20.33;60.69;100188.94;5074199;28;20064;-79
2022/09/06 00:12:14;;;;;;;3.35;1.60;;;;;;;20.35;60.71;100175.50;5074017;28;20059;-79
2022/09/06 00:14:40;;;;;;;;;;;;;;;20.34;60.41;100174.69;5074495;28;20032;-78
2022/09/06 00:17:05;;;;;;;2.90;1.40;;;;;;;20.40;59.95;100181.38;5073797;28;19916;-78
2022/09/06 00:19:30;;;;;;;;;;;;;;;20.50;59.62;100179.81;5074658;28;20028;-78
2022/09/06 00:21:56;;;;;;;3.50;1.40;;;;;;;20.59;58.52;100174.63;5073789;28;19919;-79
2022/09/06 00:24:21;;;;;;;;;;;;;;;20.73;57.96;100180.13;5074163;28;20451;-78
2022/09/06 00:26:47;;;;;;;2.42;1.05;;;;;;;20.83;57.98;100183.25;5074916;28;19972;-79
2022/09/06 00:29:12;;;;;;;;;;;;;;;20.83;58.58;100184.03;5074128;28;20032;-79
2022/09/06 00:31:37;;;;;;;2.80;1.40;;;;;;;20.94;57.35;100183.97;5073859;28;20382;-79
2022/09/06 00:34:02;;;;;;;4.97;1.75;;;;;;;20.57;58.35;100190.06;5073881;28;20033;-78
2022/09/06 00:36:28;;;;;;;3.97;1.60;;;;;;;20.42;58.56;100186.56;5073718;28;20078;-79
2022/09/06 00:38:53;;;;;;;3.95;1.48;;;;;;;20.47;58.78;100188.91;5073445;28;20040;-79
2022/09/06 00:41:18;;;;;;;;;;;;;;;20.83;57.81;100183.25;5074077;28;20099;-79
2022/09/06 00:43:44;;;;;;;2.97;1.40;;;;;;;20.96;57.22;100198.19;5073816;28;19922;-79
2022/09/06 00:46:13;;;;;;;3.40;1.58;;;;;;;20.79;57.39;100226.72;5073504;28;20032;-80
2022/09/06 00:48:40;;;;;;;4.07;1.90;;;;;;;20.81;57.08;100213.28;5073139;28;20033;-79
2022/09/06 00:51:09;;;;;;;3.97;1.80;;;;;;;20.82;57.22;100226.72;5073508;28;20032;-80
2022/09/06 00:53:35;;;;;;;3.97;1.77;;;;;;;20.71;57.64;100232.31;5073484;28;20032;-79
2022/09/06 00:56:01;;;;;;;3.85;1.80;;;;;;;20.68;57.81;100222.03;5073181;28;20039;-80
2022/09/06 00:58:26;;;;;;;4.18;1.63;;;;;;;20.65;58.01;100228.34;5073266;28;20472;-79
2022/09/06 01:00:52;;;;;;;;;;;;;;;20.62;58.25;100231.13;5073781;28;20368;-79
2022/09/06 01:03:18;;;;;;;6.73;2.17;;;;;;;20.58;58.34;100238.66;5073131;28;19969;-79
2022/09/06 01:06:02;;;;;;;5.13;1.80;;;;;;;20.58;58.29;100236.69;5071824;28;20295;-80
2022/09/06 01:08:48;;;;;;;5.15;1.88;;;;;;;20.57;58.24;100240.63;5072935;28;20032;-80
2022/09/06 01:11:29;;;;;;;5.03;2.00;;;;;;;20.53;58.41;100237.09;5073151;28;20024;-80
2022/09/06 01:14:35;;;;;;;5.13;1.90;;;;;;;20.53;58.36;100242.63;5072901;28;20347;-80
2022/09/06 01:17:16;;;;;;;4.60;1.98;;;;;;;20.53;58.38;100248.16;5072830;28;20067;-80
2022/09/06 01:20:22;;;;;;;6.50;2.40;;;;;;;20.47;58.79;100251.72;5071802;28;20423;-80
2022/09/06 01:22:56;;;;;;;4.53;1.85;;;;;;;20.38;59.13;100257.66;5072714;28;20040;-80
2022/09/06 01:25:34;;;;;;;4.70;1.83;;;;;;;20.27;59.34;100273.44;5072774;28;20020;-80
2022/09/06 01:28:05;;;;;;;3.83;1.52;;;;;;;20.23;59.22;100267.94;5072865;28;20020;-80
2022/09/06 01:30:36;;;;;;;4.03;1.50;;;;;;;20.21;59.38;100269.50;5073011;28;20036;-81
2022/09/06 01:33:32;;;;;;;3.53;1.40;;;;;;;20.23;59.35;100275.44;5072857;28;20029;-79
2022/09/06 01:36:05;;;;;;;3.70;1.52;;;;;;;20.11;59.55;100271.88;5072567;28;20028;-80
2022/09/06 01:38:31;;;;;;;4.22;1.42;;;;;;;20.03;59.87;100275.84;5072588;28;20043;-79
2022/09/06 01:40:56;;;;;;;3.92;1.80;;;;;;;20.01;59.87;100267.16;5072786;28;20032;-79
2022/09/06 01:43:24;;;;;;;;;;;;;;;19.97;59.75;100265.56;5073372;28;20029;-79
2022/09/06 01:45:57;;;;;;;;;;;;;;;19.93;59.94;100259.25;5072922;28;19909;-79
2022/09/06 01:48:43;;;;;;;3.70;1.70;;;;;;;19.92;60.08;100261.22;5072707;28;19916;-79
2022/09/06 01:51:36;;;;;;;4.03;1.58;;;;;;;19.90;60.25;100260.81;5071084;28;20037;-79
2022/09/06 01:54:26;;;;;;;3.53;1.60;;;;;;;19.98;60.19;100265.16;5072652;28;20075;-80
2022/09/06 01:57:15;;;;;;;3.90;1.48;;;;;;;19.98;60.43;100267.91;5072636;28;20048;-79
2022/09/06 01:59:49;;;;;;;5.22;1.30;;;;;;;19.92;61.78;100265.97;5072316;28;20036;-79
2022/09/06 02:02:28;;;;;;;3.78;1.50;;;;;;;19.88;63.21;100260.44;5072471;28;20108;-79
2022/09/06 02:05:05;;;;;;;3.45;1.90;;;;;;;19.78;64.64;100247.38;5071141;28;20132;-79
2022/09/06 02:07:33;;;;;;;3.50;1.50;;;;;;;19.62;65.97;100260.78;5072273;28;20032;-80
2022/09/06 02:10:08;;;;;;;3.60;1.60;;;;;;;19.53;67.06;100259.19;5072102;28;20460;-80
2022/09/06 02:12:38;;;;;;;4.53;1.80;;;;;;;19.49;67.27;100247.34;5072268;28;20028;-79
2022/09/06 02:15:27;;;;;;;3.63;1.63;;;;;;;19.38;67.90;100256.78;5072508;28;20094;-79
2022/09/06 02:18:00;;;;;;;4.05;1.83;;;;;;;19.37;68.96;100250.47;5072377;28;20028;-79
2022/09/06 02:20:30;;;;;;;4.28;1.85;;;;;;;19.33;68.76;100238.63;5072346;28;20059;-79
2022/09/06 02:22:59;;;;;;;4.78;1.92;;;;;;;19.32;69.07;100242.56;5072339;28;20446;-78
2022/09/06 02:25:29;;;;;;;4.38;1.90;;;;;;;19.26;69.70;100241.34;5074183;28;20399;-79
2022/09/06 02:27:55;;;;;;;4.30;1.55;;;;;;;19.18;69.98;100248.06;5076127;28;20032;-78
2022/09/06 02:30:20;;;;;;;4.35;1.90;;;;;;;19.23;70.92;100239.38;5076223;28;20443;-79
2022/09/06 02:32:49;;;;;;;;;;;;;;;19.21;70.73;100230.69;5076236;28;20025;-78
2022/09/06 02:35:15;;;;;;;3.92;1.92;;;;;;;19.22;70.87;100229.53;5075858;28;19912;-79
2022/09/06 02:37:41;;;;;;;4.43;1.70;;;;;;;19.11;71.70;100231.44;5075767;28;20039;-79
2022/09/06 02:40:09;;;;;;;6.13;1.80;;;;;;;19.23;71.29;100229.13;5075615;28;20056;-79
2022/09/06 02:42:34;;;;;;;6.18;2.08;;;;;;;19.13;72.12;100229.88;5075653;28;20024;-79
2022/09/06 02:45:00;;;;;;;4.85;2.22;;;;;;;19.09;72.55;100220.00;5074223;28;20110;-79
2022/09/06 02:47:25;;;;;;;;;;;;;;;19.50;72.78;100237.88;5076209;28;20040;-78
2022/09/06 02:49:50;;;;;;;5.70;1.80;;;;;;;19.75;71.10;100251.75;5075828;28;19951;-80
2022/09/06 02:52:16;;;;;;;;;;;;;;;19.43;72.38;100248.09;5075986;28;20115;-79
2022/09/06 02:54:41;;;;;;;3.75;1.70;;;;;;;19.50;71.61;100243.41;5074168;28;20346;-79
2022/09/06 02:57:07;;;;;;;;;;;;;;;19.39;72.43;100245.34;5076034;28;20021;-79
2022/09/06 02:59:32;;;;;;;7.27;2.57;;;;;;;19.48;72.61;100256.81;5075738;28;19954;-79
2022/09/06 03:01:57;;;;;;;;;;;;;;;19.15;74.16;100262.63;5076097;28;20266;-79
2022/09/06 03:04:23;;;;;;;5.05;1.95;;;;;;;18.90;75.43;100249.50;5075432;28;19924;-79
2022/09/06 03:06:48;;;;;;;;;;;;;;;19.28;74.21;100252.78;5075968;28;20033;-79
2022/09/06 03:09:13;;;;;;;4.32;1.75;;;;;;;19.28;74.35;100246.47;5075109;28;19916;-79
2022/09/06 03:11:39;;;;;;;;;;;;;;;18.94;75.53;100246.75;5075926;28;20028;-79
2022/09/06 03:14:04;;;;;;;6.23;2.10;;;;;;;18.80;76.35;100247.47;5075847;28;19998;-79
2022/09/06 03:16:29;;;;;;;;;;;;;;;18.62;76.72;100252.09;5074793;28;20265;-79
2022/09/06 03:18:55;;;;;;;11.37;2.23;;;;;;;18.69;76.79;100249.41;5075658;28;19915;-81
2022/09/06 03:21:20;;;;;;;;;;;;;;;18.61;77.44;100237.50;5075782;28;20029;-79
2022/09/06 03:23:45;;;;;;;3.63;1.70;;;;;;;18.59;77.44;100231.59;5075440;28;19935;-79
2022/09/06 03:26:11;;;;;;;;;;;;;;;18.54;78.00;100226.47;5075710;28;20719;-79
2022/09/06 03:28:36;;;;;;;3.80;1.70;;;;;;;18.58;77.93;100216.22;5075322;28;19918;-79
2022/09/06 03:31:02;;;;;;;;;;;;;;;18.53;78.00;100224.09;5075384;28;20031;-79
2022/09/06 03:33:27;;;;;;;3.90;1.85;;;;;;;18.70;77.60;100212.38;5075121;28;19953;-80
2022/09/06 03:35:53;;;;;;;;;;;;;;;18.56;78.13;100217.78;5075024;28;20029;-78
2022/09/06 03:38:20;;;;;;;4.40;2.17;;;;;;;18.46;78.41;100224.03;5075044;28;19912;-79
2022/09/06 03:40:47;;;;;;;3.40;1.70;;;;;;;18.66;78.98;100208.03;5074994;28;20494;-79
2022/09/06 03:43:12;;;;;;;5.72;1.85;;;;;;;18.65;78.39;100201.72;5074653;28;20036;-80
2022/09/06 03:45:38;;;;;;;;;;;;;;;18.76;78.87;100199.78;5074791;28;20537;-79
2022/09/06 03:48:03;;;;;;;6.07;2.25;;;;;;;18.96;77.83;100213.25;5074526;28;19908;-79
2022/09/06 03:50:28;;;;;;;;;;;;;;;19.04;77.38;100214.88;5074946;28;20103;-79
2022/09/06 03:52:54;;;;;;;4.30;1.80;;;;;;;18.66;78.54;100210.78;5074796;28;19916;-80
2022/09/06 03:55:19;;;;;;;;;;;;;;;18.91;77.65;100204.19;5075061;28;20379;-79
2022/09/06 03:57:44;;;;;;;4.07;1.83;;;;;;;18.98;77.20;100206.19;5074431;28;19924;-79
2022/09/06 04:00:10;;;;;;;;;;;;;;;19.04;76.48;100203.84;5075124;28;20060;-80
2022/09/06 04:02:35;;;;;;;4.80;2.00;;;;;;;19.06;76.65;100191.22;5074209;28;19914;-80
2022/09/06 04:05:00;;;;;;;;;;;;;;;18.99;77.35;100188.47;5074810;28;20130;-79
2022/09/06 04:07:25;;;;;;;4.03;1.87;;;;;;;19.04;77.14;100184.53;5074242;28;19951;-80
2022/09/06 04:09:51;;;;;;;;;;;;;;;19.05;78.00;100183.34;5074838;28;20286;-79
2022/09/06 04:12:16;;;;;;;6.67;1.87;;;;;;;19.03;77.38;100180.19;5074261;28;19930;-81
2022/09/06 04:14:41;;;;;;;;;;;;;;;18.94;77.76;100183.31;5073399;28;20098;-79
2022/09/06 04:17:06;;;;;;;4.63;2.00;;;;;;;18.72;78.53;100181.66;5074432;28;20000;-79
2022/09/06 04:19:33;;;;;;;;;;;;;;;18.60;79.56;100185.50;5074809;28;20099;-80
2022/09/06 04:21:58;;;;;;;4.25;2.13;;;;;;;18.54;79.75;100187.06;5074146;28;19916;-81
2022/09/06 04:24:23;;;;;;;;;;;;;;;18.39;79.98;100186.19;5074168;28;20048;-78
2022/09/06 04:26:49;;;;;;;4.73;1.90;;;;;;;18.27;80.63;100190.06;5074205;28;19958;-83
2022/09/06 04:29:14;;;;;;;;;;;;;;;18.39;80.66;100177.13;5073522;28;20451;-80
2022/09/06 04:31:39;;;;;;;4.30;2.10;;;;;;;18.48;80.28;100186.66;5073694;28;19912;-81
2022/09/06 04:34:05;;;;;;;;;;;;;;;18.45;80.29;100194.88;5074213;28;20039;-80
2022/09/06 04:36:30;;;;;;;5.63;2.47;;;;;;;18.39;80.53;100193.69;5074865;28;19954;-83
2022/09/06 04:38:55;;;;;;;;;;;;;;;18.30;80.44;100203.06;5073411;28;20165;-80
2022/09/06 04:41:21;;;;;;;4.65;1.95;;;;;;;18.31;80.34;100203.88;5074378;28;19913;-81
2022/09/06 04:43:46;;;;;;;;;;;;;;;18.44;79.77;100210.63;5072551;28;20111;-81
2022/09/06 04:46:25;;;;;;;5.28;2.00;;;;;;;18.60;78.86;100208.34;5073834;28;19912;-84
2022/09/06 04:48:52;;;;;;;4.78;2.28;;;;;;;18.62;78.36;100216.25;5072038;28;20036;-84
2022/09/06 04:51:17;;;;;;;6.43;2.38;;;;;;;18.63;78.23;100210.38;5074179;28;20024;-82
2022/09/06 04:53:43;;;;;;;;;;;;;;;18.59;78.94;100217.03;5074638;28;20478;-82
2022/09/06 04:56:14;;;;;;;5.00;2.38;;;;;;;18.57;79.02;100222.13;5073469;28;20382;-82
2022/09/06 04:58:41;;;;;;;6.07;1.83;;;;;;;18.55;79.08;100227.25;5071948;28;20052;-81
2022/09/06 05:01:06;;;;;;;4.45;2.20;;;;;;;18.56;79.00;100221.34;5073423;28;20104;-81
2022/09/06 05:03:32;;;;;;;;;;;;;;;18.49;78.50;100220.53;5073381;28;20498;-82
2022/09/06 05:06:04;;;;;;;6.27;2.00;;;;;;;18.57;78.74;100227.66;5073896;28;20382;-83
2022/09/06 05:08:29;;;;;;;4.55;1.98;;;;;;;18.68;78.22;100227.75;5071598;28;20471;-78
2022/09/06 05:10:55;;;;;;;;;;;;;;;18.68;77.90;100231.28;5071314;28;20043;-73
2022/09/06 05:13:20;;;;;;;5.13;2.03;;;;;;;18.74;77.05;100226.19;5072498;28;20028;-74
2022/09/06 05:15:45;;;;;;;;;;;;;;;18.78;76.98;100230.53;5071642;28;20035;-74
2022/09/06 05:18:11;;;;;;;5.00;2.20;;;;;;;18.81;76.52;100228.97;5071380;28;20012;-76
2022/09/06 05:20:36;;;;;;;;;;;;;;;18.79;76.52;100226.59;5072258;28;20056;-76
2022/09/06 05:23:01;;;;;;;4.82;2.42;;;;;;;18.74;76.47;100224.22;5072877;28;19916;-75
2022/09/06 05:25:26;;;;;;;;;;;;;;;18.66;76.55;100222.63;5072671;28;20043;-75
2022/09/06 05:27:52;;;;;;;6.83;2.77;;;;;;;18.69;76.59;100232.88;5072022;28;20019;-75
2022/09/06 05:30:18;;;;;;;;;;;;;;;18.64;76.64;100227.72;5072966;28;20270;-75
2022/09/06 05:32:43;;;;;;;4.97;2.42;;;;;;;18.67;76.30;100224.19;5070856;28;19909;-76
2022/09/06 05:35:08;;;;;;;;;;;;;;;18.64;77.19;100238.72;5072610;28;20025;-75
2022/09/06 05:37:34;;;;;;;4.53;2.20;;;;;;;18.51;78.27;100235.50;5072195;28;19912;-75
2022/09/06 05:40:00;;;;;;;;;;;;;;;18.36;79.31;100231.06;5072406;28;20040;-75
2022/09/06 05:42:25;;;;;;;6.78;2.60;;;;;;;18.27;80.01;100239.66;5072039;28;20317;-75
2022/09/06 05:44:51;;;;;;;;;;;;;;;18.22;80.04;100237.28;5072529;28;20112;-75
2022/09/06 05:47:16;;;;;;;4.57;2.20;;;;;;;18.25;80.24;100246.75;5072317;28;20317;-75
2022/09/06 05:49:41;;;;;;;;;;;;;;;18.17;80.29;100226.63;5072397;28;20352;-75
2022/09/06 05:52:07;;;;;;;5.45;2.85;;;;;;;18.24;80.04;100234.94;5073494;28;19912;-75
2022/09/06 05:54:32;;;;;;;;;;;;;;;18.18;80.27;100230.16;5074120;28;20035;-74
2022/09/06 05:56:57;;;;;;;5.77;2.17;;;;;;;18.23;79.64;100233.34;5072003;28;19923;-79
2022/09/06 05:59:22;;;;;;;;;;;;;;;18.30;79.05;100230.63;5073558;28;20266;-78
2022/09/06 06:01:50;;;;;;;4.63;2.17;;;;;;;18.37;79.15;100226.34;5076505;28;19977;-78
2022/09/06 06:04:17;;;;;;;4.65;2.30;;;;;;;18.38;78.28;100223.22;5076724;28;20250;-78
2022/09/06 06:06:43;;;;;;;4.32;2.13;;;;;;;18.32;78.60;100228.31;5077159;28;20036;-78
2022/09/06 06:09:09;;;;;;;5.72;2.45;;;;;;;18.37;78.31;100220.84;5076396;28;20040;-78
2022/09/06 06:11:35;;;;;;;;;;;;;;;18.43;78.48;100224.81;5076820;28;20093;-85
2022/09/06 06:14:01;;;;;;;4.78;2.20;;;;;;;18.48;77.83;100224.47;5077834;28;20326;-85
2022/09/06 06:16:27;;;;;;;4.22;1.90;;;;;;;18.70;75.80;100228.16;5077869;28;20029;-85
2022/09/06 06:18:53;;;;;;;;;;;;;;;18.91;74.45;100226.25;5078348;28;20094;-86
2022/09/06 06:21:30;;;;;;;4.93;2.35;;;;;;;19.07;73.10;100220.41;5077370;28;19909;-85
2022/09/06 06:24:00;;;;;;;4.75;2.00;;;;;;;19.21;72.36;100225.19;5077518;28;20029;-85
2022/09/06 06:26:27;;;;;;;4.53;2.15;;;;;;;19.28;71.40;100225.19;5077423;28;20063;-85
2022/09/06 06:28:52;;;;;;;3.90;2.05;;;;;;;19.40;70.39;100222.06;5077545;28;20029;-86
2022/09/06 06:31:20;;;;;;;4.50;1.92;;;;;;;19.50;69.68;100220.53;5076755;28;20039;-79
2022/09/06 06:33:46;;;;;;;4.47;1.75;;;;;;;19.58;69.44;100216.59;5076499;28;20024;-81
2022/09/06 06:36:14;;;;;;;5.55;2.13;;;;;;;19.76;69.40;100220.16;5075390;28;20035;-82
2022/09/06 06:38:44;;;;;;;6.53;2.28;;;;;;;19.89;68.86;100222.53;5076675;28;20455;-82
2022/09/06 06:41:11;;;;;;;4.45;2.33;;;;;;;19.94;67.98;100206.34;5076248;28;20126;-82
2022/09/06 06:43:37;;;;;;;3.88;1.80;;;;;;;20.12;67.61;100209.88;5075002;28;20043;-82
2022/09/06 06:46:08;;;;;;;3.50;1.67;;;;;;;20.29;67.19;100213.81;5076586;28;20058;-84
2022/09/06 06:48:34;;;;;;;5.93;2.03;;;;;;;20.43;66.69;100205.50;5076293;28;20037;-83
2022/09/06 06:51:00;;;;;;;6.85;1.83;;;;;;;20.52;65.34;100204.31;5076330;28;20036;-82
2022/09/06 06:53:26;;;;;;;4.85;1.60;;;;;;;20.56;64.91;100203.09;5074862;28;20033;-83
2022/09/06 06:55:51;;;;;;;6.53;2.05;;;;;;;20.56;64.43;100202.31;5076141;28;20443;-82
2022/09/06 06:58:17;;;;;;;;;;;;;;;20.71;64.43;100207.41;5076571;28;20478;-83
2022/09/06 07:00:43;;;;;;;4.35;1.50;;;;;;;20.77;63.75;100201.44;5076283;28;19916;-82
2022/09/06 07:03:10;;;;;;;3.47;1.50;;;;;;;20.83;63.70;100195.09;5075949;28;20137;-83
2022/09/06 07:05:35;;;;;;;3.83;1.70;;;;;;;20.91;63.83;100193.09;5076441;28;20132;-83
2022/09/06 07:08:01;;;;;;;3.72;1.73;;;;;;;21.09;62.70;100201.28;5075802;28;20034;-83
2022/09/06 07:10:26;;;;;;;4.00;1.80;;;;;;;21.11;62.63;100205.22;5075417;28;20044;-83
2022/09/06 07:12:51;;;;;;;;;;;;;;;21.06;63.07;100205.66;5076725;28;20028;-83
2022/09/06 07:15:17;;;;;;;4.77;1.50;;;;;;;21.04;63.27;100194.22;5074889;28;20408;-82
2022/09/06 07:17:43;;;;;;;7.30;1.77;;;;;;;21.03;63.28;100206.47;5076045;28;20029;-83
2022/09/06 07:20:09;;;;;;;3.03;1.30;;;;;;;21.03;63.52;100203.72;5076739;28;20035;-83
2022/09/06 07:22:35;;;;;;;4.22;1.70;;;;;;;21.21;62.86;100204.41;5074604;28;20036;-82
2022/09/06 07:25:02;;;;;;;4.18;1.73;;;;;;;21.42;62.12;100202.72;5076253;28;20031;-84
2022/09/06 07:27:27;;;;;;;3.22;1.60;;;;;;;21.53;62.13;100197.88;5076179;28;20136;-82
2022/09/06 07:29:52;;;;;;;3.22;1.67;;;;;;;21.63;62.11;100200.56;5075935;28;20519;-82
2022/09/06 07:32:18;;;;;;;4.07;1.92;;;;;;;21.55;61.94;100201.81;5076612;28;20458;-83
2022/09/06 07:34:43;;;;;;;4.15;1.73;;;;;;;21.91;61.02;100199.56;5076840;28;20111;-83
2022/09/06 07:37:09;;;;;;;3.42;1.40;;;;;;;22.03;59.92;100200.25;5082168;28;20029;-81
2022/09/06 07:39:35;;;;;;;3.35;1.30;;;;;;;22.11;59.12;100201.78;5082632;28;20068;-83
2022/09/06 07:42:01;;;;;;;2.45;1.00;;;;;;;22.14;58.53;100201.72;5081900;28;20025;-83
2022/09/06 07:44:28;;;;;;;2.42;1.05;;;;;;;22.15;58.28;100199.75;5077755;28;20496;-84
2022/09/06 07:46:53;;;;;;;2.72;1.13;;;;;;;22.17;58.31;100202.91;5077435;28;20040;-83
2022/09/06 07:49:19;;;;;;;3.45;1.20;;;;;;;22.24;57.43;100196.50;5077403;28;20467;-83
2022/09/06 07:51:44;;;;;;;3.58;1.00;;;;;;;22.49;56.87;100192.25;5076203;28;20037;-85
2022/09/06 07:54:10;;;;;;;4.35;1.45;;;;;;;22.74;56.63;100186.41;5076871;28;20154;-85
2022/09/06 07:56:35;;;;;;;11.20;1.90;;;;;;;22.68;56.47;100196.41;5077234;28;20489;-84
2022/09/06 07:59:00;;;;;;;2.55;1.10;;;;;;;23.09;54.98;100187.97;5076725;28;20111;-84
2022/09/06 08:01:26;;;;;;;2.13;0.90;;;;;;;23.11;54.55;100199.44;5076860;28;20126;-82
2022/09/06 08:03:52;;;;;;;2.35;1.08;;;;;;;23.23;53.99;100191.75;5075190;28;20107;-85
2022/09/06 08:06:18;;;;;;;2.47;1.15;;;;;;;23.38;53.19;100193.13;5076989;28;20139;-80
2022/09/06 08:08:44;;;;;;;2.10;0.93;;;;;;;23.27;52.71;100196.03;5076400;28;20037;-84
2022/09/06 08:11:09;;;;;;;2.50;1.02;;;;;;;23.24;53.47;100202.44;5077081;28;20040;-83
2022/09/06 08:13:36;;;;;;;1.67;0.80;;;;;;;23.18;53.13;100197.75;5075878;28;20037;-82
2022/09/06 08:16:07;;;;;;;3.30;0.90;;;;;;;23.50;51.96;100198.06;5075315;28;20475;-84
2022/09/06 08:18:34;;;;;;;3.92;1.13;;;;;;;23.62;51.82;100200.31;5075592;28;20021;-82
2022/09/06 08:21:17;;;;;;;2.22;0.70;;;;;;;23.72;51.21;100203.34;5074616;28;20032;-84
2022/09/06 08:23:47;;;;;;;2.25;1.00;;;;;;;23.90;50.84;100203.84;5074292;28;20051;-80
2022/09/06 08:26:14;;;;;;;2.00;0.80;;;;;;;23.97;49.94;100209.25;5074414;28;20090;-79
2022/09/06 08:28:39;;;;;;;1.45;0.70;;;;;;;24.17;49.36;100206.53;5074221;28;20034;-79
2022/09/06 08:31:13;;;;;;;2.22;0.80;;;;;;;24.27;49.74;100200.78;5073775;28;20107;-78
2022/09/06 08:33:39;;;;;;;2.38;0.80;;;;;;;24.26;49.48;100213.09;5072519;28;20039;-80
2022/09/06 08:36:06;;;;;;;2.65;1.10;;;;;;;24.40;48.83;100209.31;5074100;28;20064;-79
2022/09/06 08:38:31;;;;;;;2.40;0.93;;;;;;;24.40;48.42;100203.75;5074018;28;20036;-80
2022/09/06 08:41:15;;;;;;;2.13;0.90;;;;;;;24.46;48.80;100204.03;5074654;28;20044;-80
2022/09/06 08:43:59;;;;;;;1.88;0.73;;;;;;;24.41;48.47;100210.09;5073107;28;20422;-82
2022/09/06 08:46:49;;;;;;;1.80;0.80;;;;;;;24.45;48.82;100199.69;5074600;28;20024;-80
2022/09/06 08:49:15;;;;;;;5.43;1.52;;;;;;;24.43;48.65;100207.66;5070710;28;20198;-80
2022/09/06 08:51:53;;;;;;;2.60;1.10;;;;;;;24.46;48.48;100207.59;5072707;28;20094;-78
2022/09/06 08:54:33;;;;;;;3.03;1.00;;;;;;;24.39;48.45;100199.41;5073562;28;20077;-78
2022/09/06 08:57:27;;;;;;;2.60;1.00;;;;;;;24.49;47.83;100194.81;5073603;28;20056;-79
2022/09/06 08:59:58;;;;;;;1.65;0.77;;;;;;;24.54;47.58;100194.34;5073850;28;20032;-79
2022/09/06 09:02:23;;;;;;;2.63;0.90;;;;;;;24.63;47.30;100188.97;5073420;28;20032;-78
2022/09/06 09:04:51;;;;;;;2.85;0.85;;;;;;;24.69;46.92;100198.41;5073701;28;20375;-80
2022/09/06 09:07:42;;;;;;;1.80;0.85;;;;;;;24.66;47.26;100190.09;5073892;28;20036;-79
2022/09/06 09:10:20;;;;;;;2.13;0.85;;;;;;;24.55;47.67;100193.13;5074157;28;20427;-80
2022/09/06 09:12:47;;;;;;;1.83;0.80;;;;;;;24.64;47.47;100190.53;5073554;28;20491;-80
2022/09/06 09:15:16;;;;;;;1.98;0.80;;;;;;;24.66;47.42;100190.91;5072560;28;20039;-78
2022/09/06 09:17:43;;;;;;;3.80;1.17;;;;;;;24.71;47.25;100182.06;5074237;28;20040;-81
2022/09/06 09:20:09;;;;;;;2.33;1.02;;;;;;;24.69;47.81;100187.28;5074221;28;20047;-79
2022/09/06 09:22:36;;;;;;;3.80;0.93;;;;;;;24.63;47.71;100180.63;5073004;28;20032;-79
2022/09/06 09:25:03;;;;;;;3.28;1.00;;;;;;;24.73;48.10;100189.97;5073998;28;20096;-79
2022/09/06 09:27:31;;;;;;;2.33;0.73;;;;;;;24.65;47.53;100183.75;5074140;28;20024;-80
2022/09/06 09:30:00;;;;;;;1.65;0.65;;;;;;;24.78;47.42;100170.75;5074554;28;20178;-80
2022/09/06 09:32:38;;;;;;;1.92;0.88;;;;;;;24.92;47.90;100175.25;5074794;28;20461;-80
2022/09/06 09:35:31;;;;;;;3.33;0.93;;;;;;;24.86;46.61;100174.97;5075513;28;20032;-80
2022/09/06 09:38:09;;;;;;;1.70;0.70;;;;;;;24.82;47.31;100167.91;5076593;28;20039;-79
2022/09/06 09:41:04;;;;;;;2.97;1.00;;;;;;;25.02;47.32;100167.88;5075509;28;20082;-80
2022/09/06 09:43:40;;;;;;;2.63;1.25;;;;;;;25.19;46.47;100172.28;5075128;28;20078;-78
2022/09/06 09:46:23;;;;;;;1.75;0.80;;;;;;;25.14;45.76;100162.44;5073299;28;20043;-79
2022/09/06 09:49:08;;;;;;;2.40;0.90;;;;;;;25.23;46.28;100159.06;5081171;28;20437;-83
2022/09/06 09:51:42;;;;;;;1.67;0.85;;;;;;;25.38;45.63;100156.72;5080657;28;20025;-82
2022/09/06 09:54:13;;;;;;;2.72;0.90;;;;;;;25.43;45.89;100156.97;5083393;28;20163;-82
2022/09/06 09:56:51;;;;;;;2.45;0.90;;;;;;;25.58;45.20;100151.06;5082069;28;20028;-80
2022/09/06 09:59:22;;;;;;;2.17;0.80;;;;;;;25.52;45.26;100150.78;5083170;28;20051;-82
2022/09/06 10:01:51;;;;;;;1.98;0.77;;;;;;;25.43;45.93;100145.84;5083319;28;20032;-82
2022/09/06 10:04:28;;;;;;;6.95;1.48;;;;;;;25.63;45.52;100142.16;5078391;28;20028;-83
2022/09/06 10:07:10;;;;;;;1.60;0.77;;;;;;;25.46;45.43;100150.53;5075599;28;20029;-81
2022/09/06 10:09:39;;;;;;;2.58;0.90;;;;;;;25.58;46.09;100149.06;5073475;28;20037;-82
2022/09/06 10:12:05;;;;;;;4.03;0.90;;;;;;;25.56;45.58;100150.72;5075315;28;20083;-83
2022/09/06 10:14:43;;;;;;;2.20;0.90;;;;;;;25.72;45.02;100145.16;5073196;28;20395;-82
2022/09/06 10:17:18;;;;;;;1.95;0.80;;;;;;;25.84;44.51;100144.44;5074682;28;20538;-82
2022/09/06 10:19:45;;;;;;;2.38;0.90;;;;;;;25.60;45.02;100137.47;5074477;28;20464;-81
2022/09/06 10:22:25;;;;;;;1.63;0.75;;;;;;;25.56;45.14;100128.41;5072866;28;20079;-82
2022/09/06 10:25:25;;;;;;;3.38;1.35;;;;;;;25.71;44.92;100141.59;5075045;28;20032;-81
2022/09/06 10:28:28;;;;;;;1.95;0.80;;;;;;;25.55;45.22;100143.56;5074355;28;20032;-82
2022/09/06 10:31:09;;;;;;;3.28;1.08;;;;;;;25.89;45.76;100141.13;5074468;28;20468;-81
2022/09/06 10:34:02;;;;;;;2.55;0.80;;;;;;;26.30;43.85;100136.81;5074483;28;20040;-82
2022/09/06 10:36:36;;;;;;;2.13;0.90;;;;;;;25.89;44.27;100141.13;5073102;28;20395;-80
2022/09/06 10:39:39;;;;;;;2.67;1.02;;;;;;;26.05;44.37;100134.72;5074319;28;20081;-82
2022/09/06 10:42:10;;;;;;;2.13;0.80;;;;;;;26.00;44.41;100138.03;5074045;28;20037;-84
2022/09/06 10:44:54;;;;;;;3.13;1.00;;;;;;;26.07;43.00;100135.84;5077322;28;20064;-82
2022/09/06 10:47:25;;;;;;;1.73;0.80;;;;;;;26.28;42.64;100139.28;5077085;28;20035;-84
2022/09/06 10:49:57;;;;;;;3.63;1.30;;;;;;;26.12;43.95;100137.31;5078101;28;20047;-82
2022/09/06 10:52:31;;;;;;;2.88;0.90;;;;;;;25.94;43.67;100125.84;5078182;28;20032;-82
2022/09/06 10:55:03;;;;;;;2.03;0.80;;;;;;;25.92;43.42;100142.25;5077397;28;20506;-82
2022/09/06 10:58:00;;;;;;;2.65;1.00;;;;;;;26.08;43.84;100140.22;5076990;28;20118;-82
2022/09/06 11:00:26;;;;;;;2.53;0.98;;;;;;;26.54;43.23;100138.16;5074857;28;20106;-82
2022/09/06 11:03:13;;;;;;;1.95;0.80;;;;;;;26.24;43.50;100131.00;5077230;28;20032;-84
2022/09/06 11:05:51;;;;;;;3.25;0.90;;;;;;;26.52;42.88;100126.63;5077368;28;20076;-82
2022/09/06 11:08:21;;;;;;;2.33;0.80;;;;;;;26.72;43.14;100132.06;5077059;28;20024;-81
2022/09/06 11:10:49;;;;;;;2.38;1.10;;;;;;;26.99;42.70;100123.22;5075677;28;20036;-81
2022/09/06 11:13:16;;;;;;;2.53;0.80;;;;;;;26.82;42.08;100118.97;5076409;28;20251;-81
2022/09/06 11:15:55;;;;;;;2.97;1.02;;;;;;;27.09;41.39;100121.38;5076901;28;20459;-81
2022/09/06 11:18:35;;;;;;;1.42;0.75;;;;;;;27.08;42.26;100128.97;5075713;28;20033;-78
2022/09/06 11:21:32;;;;;;;2.38;0.90;;;;;;;26.83;42.08;100123.34;5078329;28;20028;-79
2022/09/06 11:24:15;;;;;;;2.23;0.93;;;;;;;26.77;42.22;100127.91;5078047;28;20028;-79
2022/09/06 11:27:01;;;;;;;2.10;0.88;;;;;;;27.00;42.30;100130.41;5078464;28;20088;-79
2022/09/06 11:29:29;;;;;;;1.50;0.60;;;;;;;27.05;42.84;100134.69;5075580;28;20021;-79
2022/09/06 11:31:57;;;;;;;1.77;0.77;;;;;;;27.06;41.71;100128.66;5075102;28;20038;-79
2022/09/06 11:34:31;;;;;;;2.13;0.77;;;;;;;27.12;42.42;100117.69;5075427;28;20055;-79
2022/09/06 11:37:02;;;;;;;1.95;0.80;;;;;;;27.50;41.14;100128.81;5075088;28;20105;-79
2022/09/06 11:39:36;;;;;;;1.25;0.63;;;;;;;27.68;39.72;100133.84;5075127;28;20036;-79
2022/09/06 11:42:07;;;;;;;1.80;0.70;;;;;;;27.83;39.41;100130.09;5075241;28;20128;-79
2022/09/06 11:44:55;;;;;;;3.95;1.40;;;;;;;27.40;40.79;100129.97;5075022;28;20157;-80
2022/09/06 11:47:44;;;;;;;2.53;1.20;;;;;;;27.31;40.67;100127.06;5074479;28;20040;-79
2022/09/06 11:50:23;;;;;;;1.67;0.80;;;;;;;27.24;41.11;100123.28;5074501;28;20471;-80